sensor_id;sensor_type;location;lat;lon;timestamp;temperature;humidity
1592;DHT22;789;51.612;7.510;2023-08-12T00:01:55;23.60;1.00
1592;DHT22;789;51.612;7.510;2023-08-12T00:04:22;23.50;1.00
1592;DHT22;789;51.612;7.510;2023-08-12T00:06:49;23.60;1.00
1592;DHT22;789;51.612;7.510;2023-08-12T00:09:15;23.60;1.00
1592;DHT22;789;51.612;7.510;2023-08-12T00:11:43;23.60;1.00
1592;DHT22;789;51.612;7.510;2023-08-12T00:14:10;23.60;1.00
1592;DHT22;789;51.612;7.510;2023-08-12T00:16:38;23.60;1.00
1592;DHT22;789;51.612;7.510;2023-08-12T00:19:05;23.60;1.00
1592;DHT22;789;51.612;7.510;2023-08-12T00:21:34;23.70;1.00
1592;DHT22;789;51.612;7.510;2023-08-12T00:24:04;23.60;1.00
1592;DHT22;789;51.612;7.510;2023-08-12T00:26:31;23.60;1.00
1592;DHT22;789;51.612;7.510;2023-08-12T00:28:59;23.70;1.00
1592;DHT22;789;51.612;7.510;2023-08-12T00:31:25;23.60;1.00
1592;DHT22;789;51.612;7.510;2023-08-12T00:33:54;23.70;1.00
1592;DHT22;789;51.612;7.510;2023-08-12T00:36:20;23.60;1.00
1592;DHT22;789;51.612;7.510;2023-08-12T00:38:47;23.60;1.00
1592;DHT22;789;51.612;7.510;2023-08-12T00:41:15;23.60;1.00
1592;DHT22;789;51.612;7.510;2023-08-12T00:43:42;23.70;1.00
1592;DHT22;789;51.612;7.510;2023-08-12T00:46:09;23.60;1.00
1592;DHT22;789;51.612;7.510;2023-08-12T00:48:36;23.60;1.00
1592;DHT22;789;51.612;7.510;2023-08-12T00:51:04;23.60;1.00
1592;DHT22;789;51.612;7.510;2023-08-12T00:53:31;23.60;1.00
1592;DHT22;789;51.612;7.510;2023-08-12T00:55:58;23.60;1.00
1592;DHT22;789;51.612;7.510;2023-08-12T00:58:25;23.60;1.00
1592;DHT22;789;51.612;7.510;2023-08-12T01:00:52;23.60;1.00
1592;DHT22;789;51.612;7.510;2023-08-12T01:03:19;23.60;1.00
1592;DHT22;789;51.612;7.510;2023-08-12T01:05:46;23.50;1.00
1592;DHT22;789;51.612;7.510;2023-08-12T01:08:14;23.50;1.00
1592;DHT22;789;51.612;7.510;2023-08-12T01:10:46;23.50;1.00
1592;DHT22;789;51.612;7.510;2023-08-12T01:13:26;23.50;1.00
1592;DHT22;789;51.612;7.510;2023-08-12T01:16:00;23.50;1.00
1592;DHT22;789;51.612;7.510;2023-08-12T01:18:30;23.50;1.00
1592;DHT22;789;51.612;7.510;2023-08-12T01:20:56;23.50;1.00
1592;DHT22;789;51.612;7.510;2023-08-12T01:23:26;23.50;1.00
1592;DHT22;789;51.612;7.510;2023-08-12T01:25:53;23.30;1.00
1592;DHT22;789;51.612;7.510;2023-08-12T01:28:22;23.20;1.00
1592;DHT22;789;51.612;7.510;2023-08-12T01:30:53;23.20;1.00
1592;DHT22;789;51.612;7.510;2023-08-12T01:33:30;23.20;1.00
1592;DHT22;789;51.612;7.510;2023-08-12T01:36:11;23.10;1.00
1592;DHT22;789;51.612;7.510;2023-08-12T01:38:42;23.00;1.00
1592;DHT22;789;51.612;7.510;2023-08-12T01:41:13;23.00;1.00
1592;DHT22;789;51.612;7.510;2023-08-12T01:43:41;23.00;1.00
1592;DHT22;789;51.612;7.510;2023-08-12T01:46:09;23.00;1.00
1592;DHT22;789;51.612;7.510;2023-08-12T01:48:36;23.00;1.00
1592;DHT22;789;51.612;7.510;2023-08-12T01:51:03;23.00;1.00
1592;DHT22;789;51.612;7.510;2023-08-12T01:53:30;23.10;1.00
1592;DHT22;789;51.612;7.510;2023-08-12T01:55:58;23.10;1.00
1592;DHT22;789;51.612;7.510;2023-08-12T01:58:25;23.00;1.00
1592;DHT22;789;51.612;7.510;2023-08-12T02:00:52;23.10;1.00
1592;DHT22;789;51.612;7.510;2023-08-12T02:03:19;23.00;1.00
1592;DHT22;789;51.612;7.510;2023-08-12T02:05:46;22.90;1.00
1592;DHT22;789;51.612;7.510;2023-08-12T02:08:13;22.90;1.00
1592;DHT22;789;51.612;7.510;2023-08-12T02:10:40;22.90;1.00
1592;DHT22;789;51.612;7.510;2023-08-12T02:13:11;22.90;1.00
1592;DHT22;789;51.612;7.510;2023-08-12T02:15:39;22.90;1.00
1592;DHT22;789;51.612;7.510;2023-08-12T02:18:06;22.90;1.00
1592;DHT22;789;51.612;7.510;2023-08-12T02:20:33;22.90;1.00
1592;DHT22;789;51.612;7.510;2023-08-12T02:23:01;22.90;1.00
1592;DHT22;789;51.612;7.510;2023-08-12T02:25:28;22.90;1.00
1592;DHT22;789;51.612;7.510;2023-08-12T02:27:57;22.80;1.00
1592;DHT22;789;51.612;7.510;2023-08-12T02:30:25;22.80;1.00
1592;DHT22;789;51.612;7.510;2023-08-12T02:32:52;22.80;1.00
1592;DHT22;789;51.612;7.510;2023-08-12T02:35:20;22.90;1.00
1592;DHT22;789;51.612;7.510;2023-08-12T02:37:47;22.90;1.00
1592;DHT22;789;51.612;7.510;2023-08-12T02:40:14;22.90;1.00
1592;DHT22;789;51.612;7.510;2023-08-12T02:42:41;23.00;1.00
1592;DHT22;789;51.612;7.510;2023-08-12T02:45:09;22.90;1.00
1592;DHT22;789;51.612;7.510;2023-08-12T02:47:37;22.90;1.00
1592;DHT22;789;51.612;7.510;2023-08-12T02:50:05;22.90;1.00
1592;DHT22;789;51.612;7.510;2023-08-12T02:52:32;22.90;1.00
1592;DHT22;789;51.612;7.510;2023-08-12T02:55:01;22.90;1.00
1592;DHT22;789;51.612;7.510;2023-08-12T02:57:28;22.90;1.00
1592;DHT22;789;51.612;7.510;2023-08-12T02:59:55;22.90;1.00
1592;DHT22;789;51.612;7.510;2023-08-12T03:02:22;22.90;1.00
1592;DHT22;789;51.612;7.510;2023-08-12T03:04:50;22.80;1.00
1592;DHT22;789;51.612;7.510;2023-08-12T03:07:20;22.90;1.00
1592;DHT22;789;51.612;7.510;2023-08-12T03:09:47;22.80;1.00
1592;DHT22;789;51.612;7.510;2023-08-12T03:12:15;22.70;1.00
1592;DHT22;789;51.612;7.510;2023-08-12T03:14:44;22.70;1.00
1592;DHT22;789;51.612;7.510;2023-08-12T03:17:11;22.70;1.00
1592;DHT22;789;51.612;7.510;2023-08-12T03:19:39;22.80;1.00
1592;DHT22;789;51.612;7.510;2023-08-12T03:22:07;22.80;1.00
1592;DHT22;789;51.612;7.510;2023-08-12T03:24:34;22.70;1.00
1592;DHT22;789;51.612;7.510;2023-08-12T03:27:03;22.70;1.00
1592;DHT22;789;51.612;7.510;2023-08-12T03:29:30;22.70;1.00
1592;DHT22;789;51.612;7.510;2023-08-12T03:31:57;22.70;1.00
1592;DHT22;789;51.612;7.510;2023-08-12T03:34:28;22.60;1.00
1592;DHT22;789;51.612;7.510;2023-08-12T03:36:54;22.50;1.00
1592;DHT22;789;51.612;7.510;2023-08-12T03:39:23;22.50;1.00
1592;DHT22;789;51.612;7.510;2023-08-12T03:41:50;22.50;1.00
1592;DHT22;789;51.612;7.510;2023-08-12T03:44:18;22.40;1.00
1592;DHT22;789;51.612;7.510;2023-08-12T03:46:45;22.30;1.00
1592;DHT22;789;51.612;7.510;2023-08-12T03:49:12;22.30;1.00
1592;DHT22;789;51.612;7.510;2023-08-12T03:51:39;22.30;1.00
1592;DHT22;789;51.612;7.510;2023-08-12T03:54:06;22.20;1.00
1592;DHT22;789;51.612;7.510;2023-08-12T03:56:34;22.20;1.00
1592;DHT22;789;51.612;7.510;2023-08-12T03:59:01;22.10;1.00
1592;DHT22;789;51.612;7.510;2023-08-12T04:01:28;22.10;1.00
1592;DHT22;789;51.612;7.510;2023-08-12T04:03:55;22.10;1.00
1592;DHT22;789;51.612;7.510;2023-08-12T04:06:21;22.00;1.00
1592;DHT22;789;51.612;7.510;2023-08-12T04:08:48;22.00;1.00
1592;DHT22;789;51.612;7.510;2023-08-12T04:11:15;21.90;1.00
1592;DHT22;789;51.612;7.510;2023-08-12T04:13:43;22.00;1.00
1592;DHT22;789;51.612;7.510;2023-08-12T04:16:11;22.00;1.00
1592;DHT22;789;51.612;7.510;2023-08-12T04:18:38;22.00;1.00
1592;DHT22;789;51.612;7.510;2023-08-12T04:21:05;22.00;1.00
1592;DHT22;789;51.612;7.510;2023-08-12T04:23:32;22.00;1.00
1592;DHT22;789;51.612;7.510;2023-08-12T04:25:59;22.00;1.00
1592;DHT22;789;51.612;7.510;2023-08-12T04:28:26;22.10;1.00
1592;DHT22;789;51.612;7.510;2023-08-12T04:30:54;22.10;1.00
1592;DHT22;789;51.612;7.510;2023-08-12T04:33:22;22.10;1.00
1592;DHT22;789;51.612;7.510;2023-08-12T04:35:49;22.20;1.00
1592;DHT22;789;51.612;7.510;2023-08-12T04:38:16;22.20;1.00
1592;DHT22;789;51.612;7.510;2023-08-12T04:40:45;22.30;1.00
1592;DHT22;789;51.612;7.510;2023-08-12T04:43:14;22.30;1.00
1592;DHT22;789;51.612;7.510;2023-08-12T04:45:44;22.40;1.00
1592;DHT22;789;51.612;7.510;2023-08-12T04:48:13;22.40;1.00
1592;DHT22;789;51.612;7.510;2023-08-12T04:50:41;22.50;1.00
1592;DHT22;789;51.612;7.510;2023-08-12T04:53:07;22.50;1.00
1592;DHT22;789;51.612;7.510;2023-08-12T04:55:35;22.50;1.00
1592;DHT22;789;51.612;7.510;2023-08-12T04:58:02;22.50;1.00
1592;DHT22;789;51.612;7.510;2023-08-12T05:00:29;22.50;1.00
1592;DHT22;789;51.612;7.510;2023-08-12T05:02:56;22.60;1.00
1592;DHT22;789;51.612;7.510;2023-08-12T05:05:25;22.60;1.00
1592;DHT22;789;51.612;7.510;2023-08-12T05:07:55;22.60;1.00
1592;DHT22;789;51.612;7.510;2023-08-12T05:10:22;22.60;1.00
1592;DHT22;789;51.612;7.510;2023-08-12T05:12:50;22.70;1.00
1592;DHT22;789;51.612;7.510;2023-08-12T05:15:19;22.70;1.00
1592;DHT22;789;51.612;7.510;2023-08-12T05:17:46;22.70;1.00
1592;DHT22;789;51.612;7.510;2023-08-12T05:20:13;22.70;1.00
1592;DHT22;789;51.612;7.510;2023-08-12T05:22:41;22.70;1.00
1592;DHT22;789;51.612;7.510;2023-08-12T05:25:08;22.80;1.00
1592;DHT22;789;51.612;7.510;2023-08-12T05:27:35;22.80;1.00
1592;DHT22;789;51.612;7.510;2023-08-12T05:30:02;22.80;1.00
1592;DHT22;789;51.612;7.510;2023-08-12T05:32:29;22.80;1.00
1592;DHT22;789;51.612;7.510;2023-08-12T05:34:56;22.80;1.00
1592;DHT22;789;51.612;7.510;2023-08-12T05:37:24;23.00;1.00
1592;DHT22;789;51.612;7.510;2023-08-12T05:39:52;22.80;1.00
1592;DHT22;789;51.612;7.510;2023-08-12T05:42:19;22.80;1.00
1592;DHT22;789;51.612;7.510;2023-08-12T05:44:46;22.70;1.00
1592;DHT22;789;51.612;7.510;2023-08-12T05:47:12;22.80;1.00
1592;DHT22;789;51.612;7.510;2023-08-12T05:49:39;22.80;1.00
1592;DHT22;789;51.612;7.510;2023-08-12T05:52:07;22.80;1.00
1592;DHT22;789;51.612;7.510;2023-08-12T05:54:34;22.80;1.00
1592;DHT22;789;51.612;7.510;2023-08-12T05:57:02;22.90;1.00
1592;DHT22;789;51.612;7.510;2023-08-12T05:59:30;22.90;1.00
1592;DHT22;789;51.612;7.510;2023-08-12T06:01:56;22.90;1.00
1592;DHT22;789;51.612;7.510;2023-08-12T06:04:23;22.90;1.00
1592;DHT22;789;51.612;7.510;2023-08-12T06:06:50;23.00;1.00
1592;DHT22;789;51.612;7.510;2023-08-12T06:09:17;23.00;1.00
1592;DHT22;789;51.612;7.510;2023-08-12T06:11:46;23.00;1.00
1592;DHT22;789;51.612;7.510;2023-08-12T06:14:14;23.10;1.00
1592;DHT22;789;51.612;7.510;2023-08-12T06:16:41;23.10;1.00
1592;DHT22;789;51.612;7.510;2023-08-12T06:19:08;23.10;1.00
1592;DHT22;789;51.612;7.510;2023-08-12T06:21:35;23.10;1.00
1592;DHT22;789;51.612;7.510;2023-08-12T06:24:01;23.10;1.00
1592;DHT22;789;51.612;7.510;2023-08-12T06:26:28;23.20;1.00
1592;DHT22;789;51.612;7.510;2023-08-12T06:28:55;23.20;1.00
1592;DHT22;789;51.612;7.510;2023-08-12T06:31:23;23.20;1.00
1592;DHT22;789;51.612;7.510;2023-08-12T06:33:52;23.20;1.00
1592;DHT22;789;51.612;7.510;2023-08-12T06:36:19;23.20;1.00
1592;DHT22;789;51.612;7.510;2023-08-12T06:38:46;23.20;1.00
1592;DHT22;789;51.612;7.510;2023-08-12T06:41:13;23.20;1.00
1592;DHT22;789;51.612;7.510;2023-08-12T06:43:40;23.30;1.00
1592;DHT22;789;51.612;7.510;2023-08-12T06:46:08;23.30;1.00
1592;DHT22;789;51.612;7.510;2023-08-12T06:48:36;23.30;1.00
1592;DHT22;789;51.612;7.510;2023-08-12T06:51:03;23.40;1.00
1592;DHT22;789;51.612;7.510;2023-08-12T06:53:35;23.30;1.00
1592;DHT22;789;51.612;7.510;2023-08-12T06:56:03;23.40;1.00
1592;DHT22;789;51.612;7.510;2023-08-12T06:58:30;23.20;1.00
1592;DHT22;789;51.612;7.510;2023-08-12T07:00:57;23.20;1.00
1592;DHT22;789;51.612;7.510;2023-08-12T07:03:27;23.20;1.00
1592;DHT22;789;51.612;7.510;2023-08-12T07:05:55;23.10;1.00
1592;DHT22;789;51.612;7.510;2023-08-12T07:08:21;23.10;1.00
1592;DHT22;789;51.612;7.510;2023-08-12T07:10:49;23.10;1.00
1592;DHT22;789;51.612;7.510;2023-08-12T07:13:16;23.00;1.00
1592;DHT22;789;51.612;7.510;2023-08-12T07:15:43;23.00;1.00
1592;DHT22;789;51.612;7.510;2023-08-12T07:18:11;22.90;1.00
1592;DHT22;789;51.612;7.510;2023-08-12T07:20:38;22.70;1.00
1592;DHT22;789;51.612;7.510;2023-08-12T07:23:06;22.50;1.00
1592;DHT22;789;51.612;7.510;2023-08-12T07:25:33;22.40;1.00
1592;DHT22;789;51.612;7.510;2023-08-12T07:28:00;22.30;1.00
1592;DHT22;789;51.612;7.510;2023-08-12T07:30:27;22.20;1.00
1592;DHT22;789;51.612;7.510;2023-08-12T07:32:53;22.10;1.00
1592;DHT22;789;51.612;7.510;2023-08-12T07:35:23;22.00;1.00
1592;DHT22;789;51.612;7.510;2023-08-12T07:37:49;22.00;1.00
1592;DHT22;789;51.612;7.510;2023-08-12T07:40:18;21.80;1.00
1592;DHT22;789;51.612;7.510;2023-08-12T07:42:46;22.00;1.00
1592;DHT22;789;51.612;7.510;2023-08-12T07:45:13;22.00;1.00
1592;DHT22;789;51.612;7.510;2023-08-12T07:47:40;22.00;1.00
1592;DHT22;789;51.612;7.510;2023-08-12T07:50:07;21.90;1.00
1592;DHT22;789;51.612;7.510;2023-08-12T07:52:35;22.00;1.00
1592;DHT22;789;51.612;7.510;2023-08-12T07:55:02;21.90;1.00
1592;DHT22;789;51.612;7.510;2023-08-12T07:57:30;21.90;1.00
1592;DHT22;789;51.612;7.510;2023-08-12T07:59:56;22.00;1.00
1592;DHT22;789;51.612;7.510;2023-08-12T08:02:23;22.10;1.00
1592;DHT22;789;51.612;7.510;2023-08-12T08:04:51;22.20;1.00
1592;DHT22;789;51.612;7.510;2023-08-12T08:07:20;22.20;1.00
1592;DHT22;789;51.612;7.510;2023-08-12T08:09:47;22.30;1.00
1592;DHT22;789;51.612;7.510;2023-08-12T08:12:14;22.20;1.00
1592;DHT22;789;51.612;7.510;2023-08-12T08:14:42;22.30;1.00
1592;DHT22;789;51.612;7.510;2023-08-12T08:17:11;22.30;1.00
1592;DHT22;789;51.612;7.510;2023-08-12T08:19:40;22.40;1.00
1592;DHT22;789;51.612;7.510;2023-08-12T08:22:07;22.60;1.00
1592;DHT22;789;51.612;7.510;2023-08-12T08:24:34;22.90;1.00
1592;DHT22;789;51.612;7.510;2023-08-12T08:27:02;23.30;1.00
1592;DHT22;789;51.612;7.510;2023-08-12T08:29:30;23.50;1.00
1592;DHT22;789;51.612;7.510;2023-08-12T08:31:58;23.50;1.00
1592;DHT22;789;51.612;7.510;2023-08-12T08:34:25;23.70;1.00
1592;DHT22;789;51.612;7.510;2023-08-12T08:36:52;23.70;1.00
1592;DHT22;789;51.612;7.510;2023-08-12T08:39:19;23.80;1.00
1592;DHT22;789;51.612;7.510;2023-08-12T08:41:48;23.80;1.00
1592;DHT22;789;51.612;7.510;2023-08-12T08:44:15;23.80;1.00
1592;DHT22;789;51.612;7.510;2023-08-12T08:46:45;24.10;1.00
1592;DHT22;789;51.612;7.510;2023-08-12T08:49:14;24.60;1.00
1592;DHT22;789;51.612;7.510;2023-08-12T08:51:43;25.50;1.00
1592;DHT22;789;51.612;7.510;2023-08-12T08:54:11;26.20;1.00
1592;DHT22;789;51.612;7.510;2023-08-12T08:56:38;26.40;1.00
1592;DHT22;789;51.612;7.510;2023-08-12T08:59:05;26.60;1.00
1592;DHT22;789;51.612;7.510;2023-08-12T09:01:32;26.40;1.00
1592;DHT22;789;51.612;7.510;2023-08-12T09:04:05;26.20;1.00
1592;DHT22;789;51.612;7.510;2023-08-12T09:06:35;25.80;1.00
1592;DHT22;789;51.612;7.510;2023-08-12T09:09:04;25.70;1.00
1592;DHT22;789;51.612;7.510;2023-08-12T09:11:33;25.40;1.00
1592;DHT22;789;51.612;7.510;2023-08-12T09:14:03;25.10;1.00
1592;DHT22;789;51.612;7.510;2023-08-12T09:16:30;24.90;1.00
1592;DHT22;789;51.612;7.510;2023-08-12T09:18:58;24.60;1.00
1592;DHT22;789;51.612;7.510;2023-08-12T09:21:28;24.60;1.00
1592;DHT22;789;51.612;7.510;2023-08-12T09:23:56;24.30;1.00
1592;DHT22;789;51.612;7.510;2023-08-12T09:26:23;24.10;1.00
1592;DHT22;789;51.612;7.510;2023-08-12T09:28:50;23.90;1.00
1592;DHT22;789;51.612;7.510;2023-08-12T09:31:24;24.20;1.00
1592;DHT22;789;51.612;7.510;2023-08-12T09:33:54;24.30;1.00
1592;DHT22;789;51.612;7.510;2023-08-12T09:36:23;24.50;1.00
1592;DHT22;789;51.612;7.510;2023-08-12T09:38:51;24.50;1.00
1592;DHT22;789;51.612;7.510;2023-08-12T09:41:22;24.60;1.00
1592;DHT22;789;51.612;7.510;2023-08-12T09:43:51;24.50;1.00
1592;DHT22;789;51.612;7.510;2023-08-12T09:46:18;24.40;1.00
1592;DHT22;789;51.612;7.510;2023-08-12T09:48:49;24.40;1.00
1592;DHT22;789;51.612;7.510;2023-08-12T09:51:17;24.60;1.00
1592;DHT22;789;51.612;7.510;2023-08-12T09:53:44;24.80;1.00
1592;DHT22;789;51.612;7.510;2023-08-12T09:56:15;25.00;1.00
1592;DHT22;789;51.612;7.510;2023-08-12T09:58:48;25.00;1.00
1592;DHT22;789;51.612;7.510;2023-08-12T10:01:16;25.00;1.00
1592;DHT22;789;51.612;7.510;2023-08-12T10:03:47;24.80;1.00
1592;DHT22;789;51.612;7.510;2023-08-12T10:06:15;24.70;1.00
1592;DHT22;789;51.612;7.510;2023-08-12T10:08:43;24.40;1.00
1592;DHT22;789;51.612;7.510;2023-08-12T10:11:10;24.30;1.00
1592;DHT22;789;51.612;7.510;2023-08-12T10:13:38;24.30;1.00
1592;DHT22;789;51.612;7.510;2023-08-12T10:16:07;24.30;1.00
1592;DHT22;789;51.612;7.510;2023-08-12T10:18:35;24.40;1.00
1592;DHT22;789;51.612;7.510;2023-08-12T10:21:04;24.50;1.00
1592;DHT22;789;51.612;7.510;2023-08-12T10:23:32;24.40;1.00
1592;DHT22;789;51.612;7.510;2023-08-12T10:26:00;24.40;1.00
1592;DHT22;789;51.612;7.510;2023-08-12T10:28:29;24.10;1.00
1592;DHT22;789;51.612;7.510;2023-08-12T10:30:57;24.30;1.00
1592;DHT22;789;51.612;7.510;2023-08-12T10:33:26;24.30;1.00
1592;DHT22;789;51.612;7.510;2023-08-12T10:35:55;24.30;1.00
1592;DHT22;789;51.612;7.510;2023-08-12T10:38:24;24.40;1.00
1592;DHT22;789;51.612;7.510;2023-08-12T10:40:52;24.40;1.00
1592;DHT22;789;51.612;7.510;2023-08-12T10:43:19;24.40;1.00
1592;DHT22;789;51.612;7.510;2023-08-12T10:45:47;24.50;1.00
1592;DHT22;789;51.612;7.510;2023-08-12T10:48:20;24.40;1.00
1592;DHT22;789;51.612;7.510;2023-08-12T10:50:53;24.40;1.00
1592;DHT22;789;51.612;7.510;2023-08-12T10:53:24;24.50;1.00
1592;DHT22;789;51.612;7.510;2023-08-12T10:55:56;24.50;1.00
1592;DHT22;789;51.612;7.510;2023-08-12T10:58:27;24.60;1.00
1592;DHT22;789;51.612;7.510;2023-08-12T11:00:55;24.40;1.00
1592;DHT22;789;51.612;7.510;2023-08-12T11:03:22;24.50;1.00
1592;DHT22;789;51.612;7.510;2023-08-12T11:05:52;24.40;1.00
1592;DHT22;789;51.612;7.510;2023-08-12T11:08:25;24.40;1.00
1592;DHT22;789;51.612;7.510;2023-08-12T11:10:54;24.50;1.00
1592;DHT22;789;51.612;7.510;2023-08-12T11:13:27;24.60;1.00
1592;DHT22;789;51.612;7.510;2023-08-12T11:16:05;24.70;1.00
1592;DHT22;789;51.612;7.510;2023-08-12T11:18:33;24.80;1.00
1592;DHT22;789;51.612;7.510;2023-08-12T11:21:01;24.80;1.00
1592;DHT22;789;51.612;7.510;2023-08-12T11:23:30;24.90;1.00
1592;DHT22;789;51.612;7.510;2023-08-12T11:25:58;25.00;1.00
1592;DHT22;789;51.612;7.510;2023-08-12T11:28:25;25.10;1.00
1592;DHT22;789;51.612;7.510;2023-08-12T11:30:52;25.00;1.00
1592;DHT22;789;51.612;7.510;2023-08-12T11:33:19;25.00;1.00
1592;DHT22;789;51.612;7.510;2023-08-12T11:35:47;25.10;1.00
1592;DHT22;789;51.612;7.510;2023-08-12T11:38:15;25.10;1.00
1592;DHT22;789;51.612;7.510;2023-08-12T11:40:43;25.00;1.00
1592;DHT22;789;51.612;7.510;2023-08-12T11:43:09;25.00;1.00
1592;DHT22;789;51.612;7.510;2023-08-12T11:45:36;25.10;1.00
1592;DHT22;789;51.612;7.510;2023-08-12T11:48:04;25.00;1.00
1592;DHT22;789;51.612;7.510;2023-08-12T11:50:31;25.10;1.00
1592;DHT22;789;51.612;7.510;2023-08-12T11:52:58;25.20;1.00
1592;DHT22;789;51.612;7.510;2023-08-12T11:55:27;25.40;1.00
1592;DHT22;789;51.612;7.510;2023-08-12T11:57:53;25.40;1.00
1592;DHT22;789;51.612;7.510;2023-08-12T12:00:21;25.50;1.00
1592;DHT22;789;51.612;7.510;2023-08-12T12:02:53;25.50;1.00
1592;DHT22;789;51.612;7.510;2023-08-12T12:05:25;25.30;1.00
1592;DHT22;789;51.612;7.510;2023-08-12T12:07:53;25.20;1.00
1592;DHT22;789;51.612;7.510;2023-08-12T12:10:21;25.30;1.00
1592;DHT22;789;51.612;7.510;2023-08-12T12:12:49;25.40;1.00
1592;DHT22;789;51.612;7.510;2023-08-12T12:15:16;25.40;1.00
1592;DHT22;789;51.612;7.510;2023-08-12T12:17:48;25.60;1.00
1592;DHT22;789;51.612;7.510;2023-08-12T12:20:15;25.90;1.00
1592;DHT22;789;51.612;7.510;2023-08-12T12:22:43;26.10;1.00
1592;DHT22;789;51.612;7.510;2023-08-12T12:25:12;26.30;1.00
1592;DHT22;789;51.612;7.510;2023-08-12T12:27:40;26.30;1.00
1592;DHT22;789;51.612;7.510;2023-08-12T12:30:10;26.50;1.00
1592;DHT22;789;51.612;7.510;2023-08-12T12:32:37;26.40;1.00
1592;DHT22;789;51.612;7.510;2023-08-12T12:35:08;26.40;1.00
1592;DHT22;789;51.612;7.510;2023-08-12T12:37:35;26.60;1.00
1592;DHT22;789;51.612;7.510;2023-08-12T12:40:03;27.00;1.00
1592;DHT22;789;51.612;7.510;2023-08-12T12:42:32;27.40;1.00
1592;DHT22;789;51.612;7.510;2023-08-12T12:44:59;27.70;1.00
1592;DHT22;789;51.612;7.510;2023-08-12T12:47:27;27.80;1.00
1592;DHT22;789;51.612;7.510;2023-08-12T12:49:54;27.90;1.00
1592;DHT22;789;51.612;7.510;2023-08-12T12:52:21;28.00;1.00
1592;DHT22;789;51.612;7.510;2023-08-12T12:54:47;28.20;1.00
1592;DHT22;789;51.612;7.510;2023-08-12T12:57:16;28.10;1.00
1592;DHT22;789;51.612;7.510;2023-08-12T12:59:43;28.00;1.00
1592;DHT22;789;51.612;7.510;2023-08-12T13:02:10;28.00;1.00
1592;DHT22;789;51.612;7.510;2023-08-12T13:04:38;28.00;1.00
1592;DHT22;789;51.612;7.510;2023-08-12T13:07:05;27.90;1.00
1592;DHT22;789;51.612;7.510;2023-08-12T13:09:32;27.90;1.00
1592;DHT22;789;51.612;7.510;2023-08-12T13:11:59;27.80;1.00
1592;DHT22;789;51.612;7.510;2023-08-12T13:14:26;27.50;1.00
1592;DHT22;789;51.612;7.510;2023-08-12T13:16:54;27.10;1.00
1592;DHT22;789;51.612;7.510;2023-08-12T13:19:21;26.90;1.00
1592;DHT22;789;51.612;7.510;2023-08-12T13:21:49;26.60;1.00
1592;DHT22;789;51.612;7.510;2023-08-12T13:24:16;26.00;1.00
1592;DHT22;789;51.612;7.510;2023-08-12T13:26:42;25.40;1.00
1592;DHT22;789;51.612;7.510;2023-08-12T13:29:12;25.00;1.00
1592;DHT22;789;51.612;7.510;2023-08-12T13:31:39;24.50;1.00
1592;DHT22;789;51.612;7.510;2023-08-12T13:34:06;24.30;1.00
1592;DHT22;789;51.612;7.510;2023-08-12T13:36:33;24.00;1.00
1592;DHT22;789;51.612;7.510;2023-08-12T13:39:01;23.80;1.00
1592;DHT22;789;51.612;7.510;2023-08-12T13:41:28;23.50;1.00
1592;DHT22;789;51.612;7.510;2023-08-12T13:43:54;23.20;1.00
1592;DHT22;789;51.612;7.510;2023-08-12T13:46:21;23.20;1.00
1592;DHT22;789;51.612;7.510;2023-08-12T13:48:48;23.10;1.00
1592;DHT22;789;51.612;7.510;2023-08-12T13:51:15;23.00;1.00
1592;DHT22;789;51.612;7.510;2023-08-12T13:53:41;23.10;1.00
1592;DHT22;789;51.612;7.510;2023-08-12T13:56:10;23.30;1.00
1592;DHT22;789;51.612;7.510;2023-08-12T13:58:37;23.40;1.00
1592;DHT22;789;51.612;7.510;2023-08-12T14:01:04;23.60;1.00
1592;DHT22;789;51.612;7.510;2023-08-12T14:03:31;23.70;1.00
1592;DHT22;789;51.612;7.510;2023-08-12T14:05:58;23.80;1.00
1592;DHT22;789;51.612;7.510;2023-08-12T14:08:25;23.90;1.00
1592;DHT22;789;51.612;7.510;2023-08-12T14:10:52;24.10;1.00
1592;DHT22;789;51.612;7.510;2023-08-12T14:13:20;24.20;1.00
1592;DHT22;789;51.612;7.510;2023-08-12T14:15:47;24.30;1.00
1592;DHT22;789;51.612;7.510;2023-08-12T14:18:13;24.50;1.00
1592;DHT22;789;51.612;7.510;2023-08-12T14:20:40;24.60;1.00
1592;DHT22;789;51.612;7.510;2023-08-12T14:23:07;24.70;1.00
1592;DHT22;789;51.612;7.510;2023-08-12T14:25:35;24.90;1.00
1592;DHT22;789;51.612;7.510;2023-08-12T14:28:02;24.90;1.00
1592;DHT22;789;51.612;7.510;2023-08-12T14:30:30;24.90;1.00
1592;DHT22;789;51.612;7.510;2023-08-12T14:32:57;24.80;1.00
1592;DHT22;789;51.612;7.510;2023-08-12T14:35:24;24.80;1.00
1592;DHT22;789;51.612;7.510;2023-08-12T14:37:51;24.60;1.00
1592;DHT22;789;51.612;7.510;2023-08-12T14:40:18;24.40;1.00
1592;DHT22;789;51.612;7.510;2023-08-12T14:42:45;24.30;1.00
1592;DHT22;789;51.612;7.510;2023-08-12T14:45:11;24.20;1.00
1592;DHT22;789;51.612;7.510;2023-08-12T14:47:42;24.20;1.00
1592;DHT22;789;51.612;7.510;2023-08-12T14:50:09;24.10;1.00
1592;DHT22;789;51.612;7.510;2023-08-12T14:52:36;24.20;1.00
1592;DHT22;789;51.612;7.510;2023-08-12T14:55:03;24.30;1.00
1592;DHT22;789;51.612;7.510;2023-08-12T14:57:30;24.40;1.00
1592;DHT22;789;51.612;7.510;2023-08-12T14:59:57;24.50;1.00
1592;DHT22;789;51.612;7.510;2023-08-12T15:02:24;24.70;1.00
1592;DHT22;789;51.612;7.510;2023-08-12T15:04:53;24.90;1.00
1592;DHT22;789;51.612;7.510;2023-08-12T15:07:20;25.00;1.00
1592;DHT22;789;51.612;7.510;2023-08-12T15:09:48;25.10;1.00
1592;DHT22;789;51.612;7.510;2023-08-12T15:12:17;25.30;1.00
1592;DHT22;789;51.612;7.510;2023-08-12T15:14:44;25.50;1.00
1592;DHT22;789;51.612;7.510;2023-08-12T15:17:10;25.50;1.00
1592;DHT22;789;51.612;7.510;2023-08-12T15:19:37;25.60;1.00
1592;DHT22;789;51.612;7.510;2023-08-12T15:22:05;25.50;1.00
1592;DHT22;789;51.612;7.510;2023-08-12T15:24:32;25.40;1.00
1592;DHT22;789;51.612;7.510;2023-08-12T15:26:59;25.20;1.00
1592;DHT22;789;51.612;7.510;2023-08-12T15:29:29;25.10;1.00
1592;DHT22;789;51.612;7.510;2023-08-12T15:31:56;24.80;1.00
1592;DHT22;789;51.612;7.510;2023-08-12T15:34:23;24.60;1.00
1592;DHT22;789;51.612;7.510;2023-08-12T15:36:50;24.50;1.00
1592;DHT22;789;51.612;7.510;2023-08-12T15:39:19;24.60;1.00
1592;DHT22;789;51.612;7.510;2023-08-12T15:41:47;24.70;1.00
1592;DHT22;789;51.612;7.510;2023-08-12T15:44:15;24.80;1.00
1592;DHT22;789;51.612;7.510;2023-08-12T15:46:42;24.90;1.00
1592;DHT22;789;51.612;7.510;2023-08-12T15:49:09;25.00;1.00
1592;DHT22;789;51.612;7.510;2023-08-12T15:51:36;25.00;1.00
1592;DHT22;789;51.612;7.510;2023-08-12T15:54:04;25.00;1.00
1592;DHT22;789;51.612;7.510;2023-08-12T15:56:35;25.10;1.00
1592;DHT22;789;51.612;7.510;2023-08-12T15:59:03;25.20;1.00
1592;DHT22;789;51.612;7.510;2023-08-12T16:01:30;25.20;1.00
1592;DHT22;789;51.612;7.510;2023-08-12T16:03:57;25.20;1.00
1592;DHT22;789;51.612;7.510;2023-08-12T16:06:25;25.20;1.00
1592;DHT22;789;51.612;7.510;2023-08-12T16:08:52;25.20;1.00
1592;DHT22;789;51.612;7.510;2023-08-12T16:11:19;25.10;1.00
1592;DHT22;789;51.612;7.510;2023-08-12T16:13:47;25.00;1.00
1592;DHT22;789;51.612;7.510;2023-08-12T16:16:14;25.00;1.00
1592;DHT22;789;51.612;7.510;2023-08-12T16:18:41;25.10;1.00
1592;DHT22;789;51.612;7.510;2023-08-12T16:21:08;25.20;1.00
1592;DHT22;789;51.612;7.510;2023-08-12T16:23:35;25.20;1.00
1592;DHT22;789;51.612;7.510;2023-08-12T16:26:01;25.30;1.00
1592;DHT22;789;51.612;7.510;2023-08-12T16:28:28;25.20;1.00
1592;DHT22;789;51.612;7.510;2023-08-12T16:30:56;25.20;1.00
1592;DHT22;789;51.612;7.510;2023-08-12T16:33:23;25.20;1.00
1592;DHT22;789;51.612;7.510;2023-08-12T16:35:50;25.10;1.00
1592;DHT22;789;51.612;7.510;2023-08-12T16:38:19;25.00;1.00